sensor_id;sensor_type;location;lat;lon;timestamp;P1;durP1;ratioP1;P2;durP2;ratioP2
56667;SDS011;42542;48.360;10.958;2022-10-16T00:01:04;10.10;;;3.50;;
56667;SDS011;42542;48.360;10.958;2022-10-16T00:04:16;9.18;;;3.45;;
56667;SDS011;42542;48.360;10.958;2022-10-16T00:07:17;9.27;;;4.03;;
56667;SDS011;42542;48.360;10.958;2022-10-16T00:10:19;8.23;;;3.50;;
56667;SDS011;42542;48.360;10.958;2022-10-16T00:13:20;10.02;;;3.63;;
56667;SDS011;42542;48.360;10.958;2022-10-16T00:16:22;8.35;;;3.35;;
56667;SDS011;42542;48.360;10.958;2022-10-16T00:19:24;7.72;;;3.38;;
56667;SDS011;42542;48.360;10.958;2022-10-16T00:22:25;8.13;;;2.90;;
56667;SDS011;42542;48.360;10.958;2022-10-16T00:25:27;9.00;;;2.90;;
56667;SDS011;42542;48.360;10.958;2022-10-16T00:28:29;8.60;;;2.83;;
56667;SDS011;42542;48.360;10.958;2022-10-16T00:31:32;9.18;;;3.17;;
56667;SDS011;42542;48.360;10.958;2022-10-16T00:34:33;8.02;;;3.47;;
56667;SDS011;42542;48.360;10.958;2022-10-16T00:37:35;8.30;;;3.20;;
56667;SDS011;42542;48.360;10.958;2022-10-16T00:40:37;9.90;;;3.53;;
56667;SDS011;42542;48.360;10.958;2022-10-16T00:46:43;8.90;;;3.50;;
56667;SDS011;42542;48.360;10.958;2022-10-16T00:49:45;7.90;;;3.53;;
56667;SDS011;42542;48.360;10.958;2022-10-16T00:52:48;8.95;;;3.67;;
56667;SDS011;42542;48.360;10.958;2022-10-16T00:55:51;7.55;;;3.28;;
56667;SDS011;42542;48.360;10.958;2022-10-16T00:58:53;9.45;;;3.40;;
56667;SDS011;42542;48.360;10.958;2022-10-16T01:01:55;7.80;;;3.05;;
56667;SDS011;42542;48.360;10.958;2022-10-16T01:04:57;7.47;;;2.92;;
56667;SDS011;42542;48.360;10.958;2022-10-16T01:08:12;7.00;;;2.92;;
56667;SDS011;42542;48.360;10.958;2022-10-16T01:11:22;7.70;;;2.83;;
56667;SDS011;42542;48.360;10.958;2022-10-16T01:14:35;8.02;;;3.10;;
56667;SDS011;42542;48.360;10.958;2022-10-16T01:24:38;6.80;;;2.60;;
56667;SDS011;42542;48.360;10.958;2022-10-16T01:27:45;7.57;;;2.70;;
56667;SDS011;42542;48.360;10.958;2022-10-16T01:30:49;6.25;;;2.55;;
56667;SDS011;42542;48.360;10.958;2022-10-16T01:34:02;6.63;;;2.50;;
56667;SDS011;42542;48.360;10.958;2022-10-16T01:37:16;6.38;;;2.45;;
56667;SDS011;42542;48.360;10.958;2022-10-16T01:40:24;7.27;;;2.60;;
56667;SDS011;42542;48.360;10.958;2022-10-16T01:43:30;7.60;;;2.45;;
56667;SDS011;42542;48.360;10.958;2022-10-16T01:46:37;9.70;;;2.42;;
56667;SDS011;42542;48.360;10.958;2022-10-16T01:49:42;7.20;;;2.28;;
56667;SDS011;42542;48.360;10.958;2022-10-16T01:52:45;7.28;;;2.40;;
56667;SDS011;42542;48.360;10.958;2022-10-16T01:55:50;8.27;;;2.63;;
56667;SDS011;42542;48.360;10.958;2022-10-16T01:59:03;6.65;;;2.10;;
56667;SDS011;42542;48.360;10.958;2022-10-16T02:02:09;6.75;;;2.22;;
56667;SDS011;42542;48.360;10.958;2022-10-16T02:05:24;5.63;;;2.00;;
56667;SDS011;42542;48.360;10.958;2022-10-16T02:08:29;6.67;;;2.30;;
56667;SDS011;42542;48.360;10.958;2022-10-16T02:11:32;5.38;;;2.00;;
56667;SDS011;42542;48.360;10.958;2022-10-16T02:14:34;7.88;;;2.60;;
56667;SDS011;42542;48.360;10.958;2022-10-16T02:17:38;8.95;;;2.67;;
56667;SDS011;42542;48.360;10.958;2022-10-16T02:20:43;6.15;;;2.40;;
56667;SDS011;42542;48.360;10.958;2022-10-16T02:24:03;6.82;;;2.30;;
56667;SDS011;42542;48.360;10.958;2022-10-16T02:30:42;6.70;;;2.30;;
56667;SDS011;42542;48.360;10.958;2022-10-16T02:33:50;7.77;;;2.10;;
56667;SDS011;42542;48.360;10.958;2022-10-16T02:36:54;7.80;;;1.95;;
56667;SDS011;42542;48.360;10.958;2022-10-16T02:39:58;6.28;;;2.20;;
56667;SDS011;42542;48.360;10.958;2022-10-16T02:43:00;6.25;;;2.28;;
56667;SDS011;42542;48.360;10.958;2022-10-16T02:46:04;5.95;;;2.25;;
56667;SDS011;42542;48.360;10.958;2022-10-16T02:49:05;7.00;;;2.08;;
56667;SDS011;42542;48.360;10.958;2022-10-16T02:52:07;5.57;;;2.00;;
56667;SDS011;42542;48.360;10.958;2022-10-16T02:55:08;5.93;;;2.10;;
56667;SDS011;42542;48.360;10.958;2022-10-16T02:58:10;6.82;;;1.80;;
56667;SDS011;42542;48.360;10.958;2022-10-16T03:01:12;6.35;;;2.10;;
56667;SDS011;42542;48.360;10.958;2022-10-16T03:04:15;6.80;;;1.90;;
56667;SDS011;42542;48.360;10.958;2022-10-16T03:07:17;6.95;;;2.13;;
56667;SDS011;42542;48.360;10.958;2022-10-16T03:10:18;5.40;;;1.97;;
56667;SDS011;42542;48.360;10.958;2022-10-16T03:13:20;5.65;;;2.00;;
56667;SDS011;42542;48.360;10.958;2022-10-16T03:16:22;5.78;;;2.13;;
56667;SDS011;42542;48.360;10.958;2022-10-16T03:19:23;5.28;;;1.73;;
56667;SDS011;42542;48.360;10.958;2022-10-16T03:22:25;6.13;;;2.10;;
56667;SDS011;42542;48.360;10.958;2022-10-16T03:25:27;5.72;;;2.10;;
56667;SDS011;42542;48.360;10.958;2022-10-16T03:28:28;7.28;;;1.90;;
56667;SDS011;42542;48.360;10.958;2022-10-16T03:31:30;6.72;;;2.25;;
56667;SDS011;42542;48.360;10.958;2022-10-16T03:34:32;5.82;;;1.90;;
56667;SDS011;42542;48.360;10.958;2022-10-16T03:37:33;7.53;;;2.15;;
56667;SDS011;42542;48.360;10.958;2022-10-16T03:40:35;5.88;;;2.00;;
56667;SDS011;42542;48.360;10.958;2022-10-16T03:43:38;5.95;;;1.90;;
56667;SDS011;42542;48.360;10.958;2022-10-16T03:46:39;6.70;;;2.05;;
56667;SDS011;42542;48.360;10.958;2022-10-16T03:49:41;5.97;;;1.83;;
56667;SDS011;42542;48.360;10.958;2022-10-16T03:52:42;5.93;;;2.03;;
56667;SDS011;42542;48.360;10.958;2022-10-16T03:55:44;6.28;;;2.25;;
56667;SDS011;42542;48.360;10.958;2022-10-16T03:58:46;5.65;;;2.17;;
56667;SDS011;42542;48.360;10.958;2022-10-16T04:01:47;6.90;;;2.00;;
56667;SDS011;42542;48.360;10.958;2022-10-16T04:04:49;6.60;;;2.10;;
56667;SDS011;42542;48.360;10.958;2022-10-16T04:07:50;6.25;;;1.90;;
56667;SDS011;42542;48.360;10.958;2022-10-16T04:10:52;6.45;;;2.20;;
56667;SDS011;42542;48.360;10.958;2022-10-16T04:13:53;8.03;;;2.00;;
56667;SDS011;42542;48.360;10.958;2022-10-16T04:16:55;6.75;;;2.00;;
56667;SDS011;42542;48.360;10.958;2022-10-16T04:19:57;6.13;;;2.10;;
56667;SDS011;42542;48.360;10.958;2022-10-16T04:22:58;8.93;;;2.28;;
56667;SDS011;42542;48.360;10.958;2022-10-16T04:26:00;5.55;;;2.40;;
56667;SDS011;42542;48.360;10.958;2022-10-16T04:29:02;6.57;;;2.33;;
56667;SDS011;42542;48.360;10.958;2022-10-16T04:32:03;7.15;;;2.40;;
56667;SDS011;42542;48.360;10.958;2022-10-16T04:35:05;10.18;;;2.47;;
56667;SDS011;42542;48.360;10.958;2022-10-16T04:38:07;7.20;;;2.50;;
56667;SDS011;42542;48.360;10.958;2022-10-16T04:41:09;7.53;;;2.30;;
56667;SDS011;42542;48.360;10.958;2022-10-16T04:44:11;7.95;;;2.35;;
56667;SDS011;42542;48.360;10.958;2022-10-16T04:47:13;6.30;;;2.20;;
56667;SDS011;42542;48.360;10.958;2022-10-16T04:50:14;7.20;;;2.55;;
56667;SDS011;42542;48.360;10.958;2022-10-16T04:53:34;6.22;;;2.10;;
56667;SDS011;42542;48.360;10.958;2022-10-16T04:56:36;5.70;;;2.30;;
56667;SDS011;42542;48.360;10.958;2022-10-16T04:59:44;6.72;;;2.20;;
56667;SDS011;42542;48.360;10.958;2022-10-16T05:02:45;6.85;;;2.40;;
56667;SDS011;42542;48.360;10.958;2022-10-16T05:05:47;6.97;;;2.30;;
56667;SDS011;42542;48.360;10.958;2022-10-16T05:08:49;7.88;;;2.50;;
56667;SDS011;42542;48.360;10.958;2022-10-16T05:11:50;7.03;;;2.28;;
56667;SDS011;42542;48.360;10.958;2022-10-16T05:14:52;7.47;;;2.40;;
56667;SDS011;42542;48.360;10.958;2022-10-16T05:17:54;5.90;;;2.50;;
56667;SDS011;42542;48.360;10.958;2022-10-16T05:20:56;6.57;;;2.50;;
56667;SDS011;42542;48.360;10.958;2022-10-16T05:23:57;7.53;;;2.60;;
56667;SDS011;42542;48.360;10.958;2022-10-16T05:26:59;7.28;;;2.30;;
56667;SDS011;42542;48.360;10.958;2022-10-16T05:30:00;10.43;;;2.17;;
56667;SDS011;42542;48.360;10.958;2022-10-16T05:33:02;7.43;;;2.40;;
56667;SDS011;42542;48.360;10.958;2022-10-16T05:36:04;6.78;;;2.28;;
56667;SDS011;42542;48.360;10.958;2022-10-16T05:39:08;6.35;;;2.20;;
56667;SDS011;42542;48.360;10.958;2022-10-16T05:42:10;6.68;;;2.58;;
56667;SDS011;42542;48.360;10.958;2022-10-16T05:45:11;7.90;;;2.42;;
56667;SDS011;42542;48.360;10.958;2022-10-16T05:48:13;6.13;;;2.38;;
56667;SDS011;42542;48.360;10.958;2022-10-16T05:51:15;6.10;;;2.60;;
56667;SDS011;42542;48.360;10.958;2022-10-16T05:54:16;6.70;;;2.97;;
56667;SDS011;42542;48.360;10.958;2022-10-16T05:57:18;9.15;;;2.95;;
56667;SDS011;42542;48.360;10.958;2022-10-16T06:00:19;8.77;;;2.88;;
56667;SDS011;42542;48.360;10.958;2022-10-16T06:03:21;7.10;;;2.80;;
56667;SDS011;42542;48.360;10.958;2022-10-16T06:06:25;7.00;;;2.58;;
56667;SDS011;42542;48.360;10.958;2022-10-16T06:09:28;9.02;;;3.20;;
56667;SDS011;42542;48.360;10.958;2022-10-16T06:12:29;8.55;;;2.85;;
56667;SDS011;42542;48.360;10.958;2022-10-16T06:15:31;12.70;;;3.20;;
56667;SDS011;42542;48.360;10.958;2022-10-16T06:18:33;8.20;;;3.03;;
56667;SDS011;42542;48.360;10.958;2022-10-16T06:21:34;6.95;;;2.75;;
56667;SDS011;42542;48.360;10.958;2022-10-16T06:24:36;7.30;;;2.80;;
56667;SDS011;42542;48.360;10.958;2022-10-16T06:27:40;6.93;;;2.70;;
56667;SDS011;42542;48.360;10.958;2022-10-16T06:30:42;6.55;;;2.50;;
56667;SDS011;42542;48.360;10.958;2022-10-16T06:33:45;6.30;;;2.47;;
56667;SDS011;42542;48.360;10.958;2022-10-16T06:36:49;8.02;;;2.80;;
56667;SDS011;42542;48.360;10.958;2022-10-16T06:39:51;7.57;;;2.30;;
56667;SDS011;42542;48.360;10.958;2022-10-16T06:42:55;6.53;;;2.40;;
56667;SDS011;42542;48.360;10.958;2022-10-16T06:45:57;6.22;;;2.38;;
56667;SDS011;42542;48.360;10.958;2022-10-16T06:48:59;8.73;;;2.45;;
56667;SDS011;42542;48.360;10.958;2022-10-16T06:52:01;6.10;;;2.47;;
56667;SDS011;42542;48.360;10.958;2022-10-16T06:55:03;6.53;;;2.22;;
56667;SDS011;42542;48.360;10.958;2022-10-16T06:58:05;6.43;;;2.20;;
56667;SDS011;42542;48.360;10.958;2022-10-16T07:01:07;9.55;;;2.63;;
56667;SDS011;42542;48.360;10.958;2022-10-16T07:04:08;6.47;;;2.20;;
56667;SDS011;42542;48.360;10.958;2022-10-16T07:07:10;5.88;;;2.15;;
56667;SDS011;42542;48.360;10.958;2022-10-16T07:10:12;6.28;;;2.30;;
56667;SDS011;42542;48.360;10.958;2022-10-16T07:13:13;10.20;;;2.30;;
56667;SDS011;42542;48.360;10.958;2022-10-16T07:16:19;6.07;;;2.10;;
56667;SDS011;42542;48.360;10.958;2022-10-16T07:19:22;6.20;;;2.00;;
56667;SDS011;42542;48.360;10.958;2022-10-16T07:22:24;6.80;;;2.30;;
56667;SDS011;42542;48.360;10.958;2022-10-16T07:25:26;6.63;;;1.95;;
56667;SDS011;42542;48.360;10.958;2022-10-16T07:28:27;5.57;;;1.90;;
56667;SDS011;42542;48.360;10.958;2022-10-16T07:31:30;6.57;;;1.80;;
56667;SDS011;42542;48.360;10.958;2022-10-16T07:34:31;5.82;;;1.90;;
56667;SDS011;42542;48.360;10.958;2022-10-16T07:37:33;5.55;;;1.90;;
56667;SDS011;42542;48.360;10.958;2022-10-16T07:40:34;5.90;;;1.80;;
56667;SDS011;42542;48.360;10.958;2022-10-16T07:43:36;5.33;;;1.70;;
56667;SDS011;42542;48.360;10.958;2022-10-16T07:46:39;6.15;;;1.73;;
56667;SDS011;42542;48.360;10.958;2022-10-16T07:49:40;6.35;;;1.70;;
56667;SDS011;42542;48.360;10.958;2022-10-16T07:52:42;5.18;;;1.80;;
56667;SDS011;42542;48.360;10.958;2022-10-16T07:55:43;4.60;;;1.60;;
56667;SDS011;42542;48.360;10.958;2022-10-16T07:58:45;6.40;;;1.87;;
56667;SDS011;42542;48.360;10.958;2022-10-16T08:01:48;6.82;;;1.70;;
56667;SDS011;42542;48.360;10.958;2022-10-16T08:04:50;4.70;;;1.50;;
56667;SDS011;42542;48.360;10.958;2022-10-16T08:07:52;5.10;;;1.70;;
56667;SDS011;42542;48.360;10.958;2022-10-16T08:10:57;7.07;;;1.48;;
56667;SDS011;42542;48.360;10.958;2022-10-16T08:14:00;7.07;;;1.60;;
56667;SDS011;42542;48.360;10.958;2022-10-16T08:17:02;4.50;;;1.30;;
56667;SDS011;42542;48.360;10.958;2022-10-16T08:20:05;5.25;;;1.52;;
56667;SDS011;42542;48.360;10.958;2022-10-16T08:23:07;6.50;;;1.60;;
56667;SDS011;42542;48.360;10.958;2022-10-16T08:26:10;6.78;;;1.50;;
56667;SDS011;42542;48.360;10.958;2022-10-16T08:29:13;4.17;;;1.33;;
56667;SDS011;42542;48.360;10.958;2022-10-16T08:32:15;4.03;;;1.20;;
56667;SDS011;42542;48.360;10.958;2022-10-16T08:35:17;4.20;;;1.30;;
56667;SDS011;42542;48.360;10.958;2022-10-16T08:38:19;5.47;;;1.40;;
56667;SDS011;42542;48.360;10.958;2022-10-16T08:41:28;5.22;;;1.50;;
56667;SDS011;42542;48.360;10.958;2022-10-16T08:51:23;11.15;;;2.35;;
56667;SDS011;42542;48.360;10.958;2022-10-16T08:54:43;4.50;;;1.48;;
56667;SDS011;42542;48.360;10.958;2022-10-16T08:57:48;7.28;;;1.30;;
56667;SDS011;42542;48.360;10.958;2022-10-16T09:00:53;4.57;;;1.30;;
56667;SDS011;42542;48.360;10.958;2022-10-16T09:07:43;4.95;;;1.23;;
56667;SDS011;42542;48.360;10.958;2022-10-16T09:14:40;6.40;;;1.20;;
56667;SDS011;42542;48.360;10.958;2022-10-16T09:21:23;5.43;;;1.10;;
56667;SDS011;42542;48.360;10.958;2022-10-16T09:24:28;4.93;;;1.10;;
56667;SDS011;42542;48.360;10.958;2022-10-16T09:27:31;5.00;;;1.10;;
56667;SDS011;42542;48.360;10.958;2022-10-16T09:30:35;3.15;;;0.98;;
56667;SDS011;42542;48.360;10.958;2022-10-16T09:33:39;5.13;;;1.20;;
56667;SDS011;42542;48.360;10.958;2022-10-16T09:36:43;8.60;;;1.30;;
56667;SDS011;42542;48.360;10.958;2022-10-16T09:42:48;5.07;;;1.10;;
56667;SDS011;42542;48.360;10.958;2022-10-16T09:45:54;3.78;;;1.10;;
56667;SDS011;42542;48.360;10.958;2022-10-16T09:49:05;5.20;;;1.20;;
56667;SDS011;42542;48.360;10.958;2022-10-16T09:52:20;4.10;;;1.20;;
56667;SDS011;42542;48.360;10.958;2022-10-16T09:55:22;4.78;;;1.13;;
56667;SDS011;42542;48.360;10.958;2022-10-16T09:58:24;4.57;;;1.10;;
56667;SDS011;42542;48.360;10.958;2022-10-16T10:01:36;4.30;;;1.38;;
56667;SDS011;42542;48.360;10.958;2022-10-16T10:04:42;7.17;;;1.20;;
56667;SDS011;42542;48.360;10.958;2022-10-16T10:07:55;4.95;;;1.30;;
56667;SDS011;42542;48.360;10.958;2022-10-16T10:10:59;4.30;;;1.30;;
56667;SDS011;42542;48.360;10.958;2022-10-16T10:14:05;5.57;;;1.38;;
56667;SDS011;42542;48.360;10.958;2022-10-16T10:17:27;3.90;;;1.20;;
56667;SDS011;42542;48.360;10.958;2022-10-16T10:20:35;4.77;;;1.30;;
56667;SDS011;42542;48.360;10.958;2022-10-16T10:23:39;4.07;;;1.20;;
56667;SDS011;42542;48.360;10.958;2022-10-16T10:26:47;4.85;;;1.40;;
56667;SDS011;42542;48.360;10.958;2022-10-16T10:30:10;4.95;;;1.20;;
56667;SDS011;42542;48.360;10.958;2022-10-16T10:36:36;4.40;;;1.40;;
56667;SDS011;42542;48.360;10.958;2022-10-16T10:39:42;3.67;;;1.20;;
56667;SDS011;42542;48.360;10.958;2022-10-16T10:42:53;4.50;;;1.40;;
56667;SDS011;42542;48.360;10.958;2022-10-16T10:45:59;3.80;;;1.20;;
56667;SDS011;42542;48.360;10.958;2022-10-16T10:49:10;4.25;;;1.35;;
56667;SDS011;42542;48.360;10.958;2022-10-16T10:56:07;3.85;;;1.15;;
56667;SDS011;42542;48.360;10.958;2022-10-16T11:02:46;4.70;;;1.40;;
56667;SDS011;42542;48.360;10.958;2022-10-16T11:05:56;5.03;;;1.20;;
56667;SDS011;42542;48.360;10.958;2022-10-16T11:09:28;5.17;;;1.40;;
56667;SDS011;42542;48.360;10.958;2022-10-16T11:12:36;4.88;;;1.20;;
56667;SDS011;42542;48.360;10.958;2022-10-16T11:15:41;4.70;;;1.30;;
56667;SDS011;42542;48.360;10.958;2022-10-16T11:25:23;4.40;;;1.27;;
56667;SDS011;42542;48.360;10.958;2022-10-16T11:28:36;5.40;;;1.42;;
56667;SDS011;42542;48.360;10.958;2022-10-16T11:31:45;3.95;;;1.40;;
56667;SDS011;42542;48.360;10.958;2022-10-16T11:34:52;3.45;;;1.10;;
56667;SDS011;42542;48.360;10.958;2022-10-16T11:37:58;4.93;;;1.20;;
56667;SDS011;42542;48.360;10.958;2022-10-16T11:41:49;3.67;;;1.10;;
56667;SDS011;42542;48.360;10.958;2022-10-16T12:01:36;4.40;;;1.40;;
56667;SDS011;42542;48.360;10.958;2022-10-16T12:04:45;4.50;;;1.60;;
56667;SDS011;42542;48.360;10.958;2022-10-16T12:17:37;3.30;;;1.10;;
56667;SDS011;42542;48.360;10.958;2022-10-16T12:20:39;6.65;;;1.30;;
56667;SDS011;42542;48.360;10.958;2022-10-16T12:23:51;3.67;;;1.10;;
56667;SDS011;42542;48.360;10.958;2022-10-16T12:26:54;4.70;;;1.20;;
56667;SDS011;42542;48.360;10.958;2022-10-16T12:30:00;3.73;;;1.10;;
56667;SDS011;42542;48.360;10.958;2022-10-16T12:33:05;3.15;;;1.00;;
56667;SDS011;42542;48.360;10.958;2022-10-16T12:36:28;2.97;;;0.95;;
56667;SDS011;42542;48.360;10.958;2022-10-16T12:39:32;4.40;;;1.10;;
56667;SDS011;42542;48.360;10.958;2022-10-16T12:42:34;3.67;;;1.08;;
56667;SDS011;42542;48.360;10.958;2022-10-16T12:45:35;3.97;;;1.13;;
56667;SDS011;42542;48.360;10.958;2022-10-16T12:48:38;4.22;;;1.10;;
56667;SDS011;42542;48.360;10.958;2022-10-16T12:51:55;6.30;;;1.38;;
56667;SDS011;42542;48.360;10.958;2022-10-16T12:54:57;4.30;;;1.00;;
56667;SDS011;42542;48.360;10.958;2022-10-16T13:01:26;4.10;;;1.23;;
56667;SDS011;42542;48.360;10.958;2022-10-16T13:11:26;8.30;;;1.30;;
56667;SDS011;42542;48.360;10.958;2022-10-16T13:15:05;4.55;;;1.10;;
56667;SDS011;42542;48.360;10.958;2022-10-16T13:18:36;3.37;;;1.03;;
56667;SDS011;42542;48.360;10.958;2022-10-16T13:22:11;4.40;;;1.00;;
56667;SDS011;42542;48.360;10.958;2022-10-16T13:25:23;5.75;;;1.30;;
56667;SDS011;42542;48.360;10.958;2022-10-16T13:28:40;4.05;;;1.10;;
56667;SDS011;42542;48.360;10.958;2022-10-16T13:31:42;4.45;;;1.10;;
56667;SDS011;42542;48.360;10.958;2022-10-16T13:34:46;3.03;;;1.03;;
56667;SDS011;42542;48.360;10.958;2022-10-16T13:37:50;4.22;;;1.10;;
56667;SDS011;42542;48.360;10.958;2022-10-16T13:43:55;4.05;;;1.10;;
56667;SDS011;42542;48.360;10.958;2022-10-16T13:46:59;3.42;;;1.17;;
56667;SDS011;42542;48.360;10.958;2022-10-16T13:50:03;3.87;;;1.10;;
56667;SDS011;42542;48.360;10.958;2022-10-16T13:53:12;3.30;;;1.00;;
56667;SDS011;42542;48.360;10.958;2022-10-16T13:56:16;3.60;;;1.00;;
56667;SDS011;42542;48.360;10.958;2022-10-16T13:59:34;3.35;;;1.00;;
56667;SDS011;42542;48.360;10.958;2022-10-16T14:02:38;4.35;;;1.17;;
56667;SDS011;42542;48.360;10.958;2022-10-16T14:05:48;4.80;;;1.00;;
56667;SDS011;42542;48.360;10.958;2022-10-16T14:08:55;3.95;;;1.10;;
56667;SDS011;42542;48.360;10.958;2022-10-16T14:12:07;3.50;;;1.00;;
56667;SDS011;42542;48.360;10.958;2022-10-16T14:15:17;4.22;;;1.10;;
56667;SDS011;42542;48.360;10.958;2022-10-16T14:18:21;4.15;;;1.20;;
56667;SDS011;42542;48.360;10.958;2022-10-16T14:21:26;3.50;;;1.10;;
56667;SDS011;42542;48.360;10.958;2022-10-16T14:24:32;4.15;;;1.15;;
56667;SDS011;42542;48.360;10.958;2022-10-16T14:27:35;4.25;;;1.10;;
56667;SDS011;42542;48.360;10.958;2022-10-16T14:30:48;4.72;;;1.30;;
56667;SDS011;42542;48.360;10.958;2022-10-16T14:33:52;3.95;;;1.17;;
56667;SDS011;42542;48.360;10.958;2022-10-16T14:36:54;4.20;;;1.20;;
56667;SDS011;42542;48.360;10.958;2022-10-16T14:39:57;3.63;;;1.10;;
56667;SDS011;42542;48.360;10.958;2022-10-16T14:42:58;4.80;;;1.23;;
56667;SDS011;42542;48.360;10.958;2022-10-16T14:46:12;3.63;;;1.00;;
56667;SDS011;42542;48.360;10.958;2022-10-16T14:49:17;5.45;;;1.20;;
56667;SDS011;42542;48.360;10.958;2022-10-16T14:52:21;3.43;;;1.10;;
56667;SDS011;42542;48.360;10.958;2022-10-16T14:55:23;4.72;;;1.33;;
56667;SDS011;42542;48.360;10.958;2022-10-16T14:58:25;5.00;;;1.30;;
56667;SDS011;42542;48.360;10.958;2022-10-16T15:01:27;6.50;;;1.42;;
56667;SDS011;42542;48.360;10.958;2022-10-16T15:04:29;5.50;;;1.20;;
56667;SDS011;42542;48.360;10.958;2022-10-16T15:07:30;6.40;;;1.40;;
56667;SDS011;42542;48.360;10.958;2022-10-16T15:10:33;4.30;;;1.20;;
56667;SDS011;42542;48.360;10.958;2022-10-16T15:13:39;5.15;;;1.20;;
56667;SDS011;42542;48.360;10.958;2022-10-16T15:16:41;4.05;;;1.23;;
56667;SDS011;42542;48.360;10.958;2022-10-16T15:19:43;4.50;;;1.27;;
56667;SDS011;42542;48.360;10.958;2022-10-16T15:22:45;4.30;;;1.30;;
56667;SDS011;42542;48.360;10.958;2022-10-16T15:25:47;5.03;;;1.38;;
56667;SDS011;42542;48.360;10.958;2022-10-16T15:28:54;5.95;;;1.30;;
56667;SDS011;42542;48.360;10.958;2022-10-16T15:31:56;4.20;;;1.05;;
56667;SDS011;42542;48.360;10.958;2022-10-16T15:34:57;5.82;;;1.30;;
56667;SDS011;42542;48.360;10.958;2022-10-16T15:37:59;4.83;;;1.20;;
56667;SDS011;42542;48.360;10.958;2022-10-16T15:41:01;4.43;;;1.33;;
56667;SDS011;42542;48.360;10.958;2022-10-16T15:44:02;7.85;;;1.45;;
56667;SDS011;42542;48.360;10.958;2022-10-16T15:47:04;4.82;;;1.27;;
56667;SDS011;42542;48.360;10.958;2022-10-16T15:50:06;4.55;;;1.40;;
56667;SDS011;42542;48.360;10.958;2022-10-16T15:53:08;5.30;;;1.30;;
56667;SDS011;42542;48.360;10.958;2022-10-16T15:56:10;5.00;;;1.30;;
56667;SDS011;42542;48.360;10.958;2022-10-16T15:59:12;4.97;;;1.40;;
56667;SDS011;42542;48.360;10.958;2022-10-16T16:02:14;6.18;;;1.30;;
56667;SDS011;42542;48.360;10.958;2022-10-16T16:05:16;4.68;;;1.40;;
56667;SDS011;42542;48.360;10.958;2022-10-16T16:08:17;3.77;;;1.30;;
56667;SDS011;42542;48.360;10.958;2022-10-16T16:11:19;6.70;;;2.30;;
56667;SDS011;42542;48.360;10.958;2022-10-16T16:14:21;6.50;;;2.05;;
56667;SDS011;42542;48.360;10.958;2022-10-16T16:17:23;7.63;;;3.10;;
56667;SDS011;42542;48.360;10.958;2022-10-16T16:20:25;10.07;;;3.17;;
56667;SDS011;42542;48.360;10.958;2022-10-16T16:23:27;9.27;;;3.90;;
56667;SDS011;42542;48.360;10.958;2022-10-16T16:26:29;9.25;;;3.95;;
56667;SDS011;42542;48.360;10.958;2022-10-16T16:29:37;8.40;;;3.00;;
56667;SDS011;42542;48.360;10.958;2022-10-16T16:32:41;6.90;;;2.67;;
56667;SDS011;42542;48.360;10.958;2022-10-16T16:35:43;5.70;;;2.33;;
56667;SDS011;42542;48.360;10.958;2022-10-16T16:38:45;6.63;;;2.83;;
56667;SDS011;42542;48.360;10.958;2022-10-16T16:41:47;7.05;;;2.95;;
56667;SDS011;42542;48.360;10.958;2022-10-16T16:44:49;6.75;;;3.10;;
56667;SDS011;42542;48.360;10.958;2022-10-16T16:47:50;9.18;;;4.20;;
56667;SDS011;42542;48.360;10.958;2022-10-16T16:50:52;13.10;;;6.03;;
56667;SDS011;42542;48.360;10.958;2022-10-16T16:53:54;19.13;;;9.97;;
56667;SDS011;42542;48.360;10.958;2022-10-16T16:56:56;24.90;;;13.30;;
56667;SDS011;42542;48.360;10.958;2022-10-16T16:59:57;19.25;;;11.13;;
56667;SDS011;42542;48.360;10.958;2022-10-16T17:02:59;22.23;;;11.10;;
56667;SDS011;42542;48.360;10.958;2022-10-16T17:06:02;17.67;;;10.20;;
56667;SDS011;42542;48.360;10.958;2022-10-16T17:09:05;16.13;;;9.00;;
56667;SDS011;42542;48.360;10.958;2022-10-16T17:12:10;16.70;;;7.95;;
56667;SDS011;42542;48.360;10.958;2022-10-16T17:15:11;13.10;;;6.75;;
56667;SDS011;42542;48.360;10.958;2022-10-16T17:18:13;10.50;;;5.35;;
56667;SDS011;42542;48.360;10.958;2022-10-16T17:21:15;9.68;;;4.95;;
56667;SDS011;42542;48.360;10.958;2022-10-16T17:24:17;10.57;;;4.23;;
56667;SDS011;42542;48.360;10.958;2022-10-16T17:27:21;10.75;;;3.95;;
56667;SDS011;42542;48.360;10.958;2022-10-16T17:30:24;10.43;;;4.00;;
56667;SDS011;42542;48.360;10.958;2022-10-16T17:33:25;10.27;;;3.92;;
56667;SDS011;42542;48.360;10.958;2022-10-16T17:36:27;10.07;;;4.50;;
56667;SDS011;42542;48.360;10.958;2022-10-16T17:39:33;9.67;;;5.33;;
56667;SDS011;42542;48.360;10.958;2022-10-16T17:42:35;10.38;;;5.47;;
56667;SDS011;42542;48.360;10.958;2022-10-16T17:45:37;9.43;;;5.50;;
56667;SDS011;42542;48.360;10.958;2022-10-16T17:48:41;9.80;;;5.22;;
56667;SDS011;42542;48.360;10.958;2022-10-16T17:51:44;12.52;;;5.70;;
56667;SDS011;42542;48.360;10.958;2022-10-16T17:54:45;11.17;;;5.97;;
56667;SDS011;42542;48.360;10.958;2022-10-16T17:57:50;12.38;;;5.80;;
56667;SDS011;42542;48.360;10.958;2022-10-16T18:00:56;12.35;;;5.70;;
56667;SDS011;42542;48.360;10.958;2022-10-16T18:03:59;10.10;;;5.60;;
56667;SDS011;42542;48.360;10.958;2022-10-16T18:07:05;11.32;;;5.57;;
56667;SDS011;42542;48.360;10.958;2022-10-16T18:10:07;10.90;;;5.30;;
56667;SDS011;42542;48.360;10.958;2022-10-16T18:13:12;10.77;;;5.60;;
56667;SDS011;42542;48.360;10.958;2022-10-16T18:16:14;12.55;;;6.50;;
56667;SDS011;42542;48.360;10.958;2022-10-16T18:19:21;12.30;;;6.20;;
56667;SDS011;42542;48.360;10.958;2022-10-16T18:22:23;14.60;;;7.35;;
56667;SDS011;42542;48.360;10.958;2022-10-16T18:25:25;13.10;;;7.13;;
56667;SDS011;42542;48.360;10.958;2022-10-16T18:28:27;12.93;;;7.00;;
56667;SDS011;42542;48.360;10.958;2022-10-16T18:31:29;14.35;;;7.30;;
56667;SDS011;42542;48.360;10.958;2022-10-16T18:34:32;17.00;;;7.70;;
56667;SDS011;42542;48.360;10.958;2022-10-16T18:37:37;16.20;;;8.07;;
56667;SDS011;42542;48.360;10.958;2022-10-16T18:40:39;16.00;;;8.50;;
56667;SDS011;42542;48.360;10.958;2022-10-16T18:43:40;16.38;;;8.88;;
56667;SDS011;42542;48.360;10.958;2022-10-16T18:46:42;14.52;;;8.63;;
56667;SDS011;42542;48.360;10.958;2022-10-16T18:49:44;18.30;;;8.93;;
56667;SDS011;42542;48.360;10.958;2022-10-16T18:52:48;17.20;;;8.60;;
56667;SDS011;42542;48.360;10.958;2022-10-16T18:55:51;21.20;;;8.40;;
56667;SDS011;42542;48.360;10.958;2022-10-16T18:58:53;13.10;;;7.38;;
56667;SDS011;42542;48.360;10.958;2022-10-16T19:01:55;17.80;;;7.80;;
56667;SDS011;42542;48.360;10.958;2022-10-16T19:04:59;14.15;;;7.10;;
56667;SDS011;42542;48.360;10.958;2022-10-16T19:08:06;14.45;;;7.15;;
56667;SDS011;42542;48.360;10.958;2022-10-16T19:11:09;13.47;;;6.73;;
56667;SDS011;42542;48.360;10.958;2022-10-16T19:14:15;11.30;;;5.75;;
56667;SDS011;42542;48.360;10.958;2022-10-16T19:17:17;11.60;;;5.35;;
56667;SDS011;42542;48.360;10.958;2022-10-16T19:20:22;12.20;;;5.15;;
56667;SDS011;42542;48.360;10.958;2022-10-16T19:23:24;11.13;;;4.80;;
56667;SDS011;42542;48.360;10.958;2022-10-16T19:26:26;9.43;;;4.43;;
56667;SDS011;42542;48.360;10.958;2022-10-16T19:29:29;10.50;;;3.90;;
56667;SDS011;42542;48.360;10.958;2022-10-16T19:32:32;8.75;;;4.05;;
56667;SDS011;42542;48.360;10.958;2022-10-16T19:35:33;9.90;;;4.30;;
56667;SDS011;42542;48.360;10.958;2022-10-16T19:38:35;10.30;;;5.32;;
56667;SDS011;42542;48.360;10.958;2022-10-16T19:41:37;12.10;;;6.13;;
56667;SDS011;42542;48.360;10.958;2022-10-16T19:44:39;12.38;;;6.10;;